Anchor, Texas
Current Conditions -  °F | °C
As of 12:53 PM on Thursday 23 Oct 2014 (Local Time) from KLBX Reporting Station
Clear Clear  
Wind Chill: 77°   Ceiling: Unl
Heat Index: 79°   Visibility: 10mi
Dew Point: 59°   Wind: 6mph
Humidity: 54%   Direction: 40°NE
Pressure: 30.11"   Gusts: NA
Location:  29.1898°N, 95.4754°W
Report Text: KLBX 231753Z AUTO 04005KT 10SM CLR 25/15 A3011 RMK AO2 SLP195 T02500150 10261 20128 58005
Loading
Personal Weather Stations






























Interactive Weather Map New forecast layout! Learn more

10-Day Weather Forecast

Advertisements
Track Severe Weather on mobile